sensor_id;sensor_type;location;lat;lon;timestamp;P1;durP1;ratioP1;P2;durP2;ratioP2
9461;SDS011;4769;42.660;23.262;2023-06-24T00:00:16;15.48;;;12.15;;
9461;SDS011;4769;42.660;23.262;2023-06-24T00:02:42;12.82;;;11.38;;
9461;SDS011;4769;42.660;23.262;2023-06-24T00:05:08;13.13;;;11.73;;
9461;SDS011;4769;42.660;23.262;2023-06-24T00:07:34;14.98;;;11.27;;
9461;SDS011;4769;42.660;23.262;2023-06-24T00:09:59;13.60;;;11.93;;
9461;SDS011;4769;42.660;23.262;2023-06-24T00:12:25;13.07;;;11.70;;
9461;SDS011;4769;42.660;23.262;2023-06-24T00:14:54;13.07;;;11.73;;
9461;SDS011;4769;42.660;23.262;2023-06-24T00:17:20;14.20;;;12.10;;
9461;SDS011;4769;42.660;23.262;2023-06-24T00:19:45;13.38;;;12.07;;
9461;SDS011;4769;42.660;23.262;2023-06-24T00:22:11;13.45;;;11.57;;
9461;SDS011;4769;42.660;23.262;2023-06-24T00:24:37;13.18;;;11.98;;
9461;SDS011;4769;42.660;23.262;2023-06-24T00:27:03;14.23;;;11.95;;
9461;SDS011;4769;42.660;23.262;2023-06-24T00:29:29;14.52;;;11.73;;
9461;SDS011;4769;42.660;23.262;2023-06-24T00:31:57;12.30;;;11.23;;
9461;SDS011;4769;42.660;23.262;2023-06-24T00:34:23;13.68;;;12.02;;
9461;SDS011;4769;42.660;23.262;2023-06-24T00:36:49;14.93;;;13.30;;
9461;SDS011;4769;42.660;23.262;2023-06-24T00:39:14;13.88;;;12.40;;
9461;SDS011;4769;42.660;23.262;2023-06-24T00:41:40;15.10;;;13.23;;
9461;SDS011;4769;42.660;23.262;2023-06-24T00:44:06;15.25;;;13.70;;
9461;SDS011;4769;42.660;23.262;2023-06-24T00:46:32;15.32;;;13.32;;
9461;SDS011;4769;42.660;23.262;2023-06-24T00:49:00;15.40;;;13.02;;
9461;SDS011;4769;42.660;23.262;2023-06-24T00:51:26;15.07;;;13.60;;
9461;SDS011;4769;42.660;23.262;2023-06-24T00:53:52;14.73;;;13.18;;
9461;SDS011;4769;42.660;23.262;2023-06-24T00:56:17;14.63;;;13.15;;
9461;SDS011;4769;42.660;23.262;2023-06-24T00:58:46;15.10;;;13.20;;
9461;SDS011;4769;42.660;23.262;2023-06-24T01:01:12;15.07;;;13.50;;
9461;SDS011;4769;42.660;23.262;2023-06-24T01:03:39;14.52;;;13.15;;
9461;SDS011;4769;42.660;23.262;2023-06-24T01:06:08;14.88;;;12.85;;
9461;SDS011;4769;42.660;23.262;2023-06-24T01:08:34;15.35;;;13.98;;
9461;SDS011;4769;42.660;23.262;2023-06-24T01:11:00;15.90;;;14.30;;
9461;SDS011;4769;42.660;23.262;2023-06-24T01:13:26;16.35;;;13.60;;
9461;SDS011;4769;42.660;23.262;2023-06-24T01:15:52;14.90;;;13.30;;
9461;SDS011;4769;42.660;23.262;2023-06-24T01:18:20;17.20;;;13.32;;
9461;SDS011;4769;42.660;23.262;2023-06-24T01:20:55;14.57;;;12.73;;
9461;SDS011;4769;42.660;23.262;2023-06-24T01:23:37;15.57;;;12.50;;
9461;SDS011;4769;42.660;23.262;2023-06-24T01:26:21;14.27;;;12.75;;
9461;SDS011;4769;42.660;23.262;2023-06-24T01:29:09;16.15;;;12.70;;
9461;SDS011;4769;42.660;23.262;2023-06-24T01:31:55;16.20;;;12.75;;
9461;SDS011;4769;42.660;23.262;2023-06-24T01:34:25;15.32;;;13.77;;
9461;SDS011;4769;42.660;23.262;2023-06-24T01:36:57;19.17;;;14.63;;
9461;SDS011;4769;42.660;23.262;2023-06-24T01:39:31;18.70;;;13.85;;
9461;SDS011;4769;42.660;23.262;2023-06-24T01:42:00;14.38;;;13.15;;
9461;SDS011;4769;42.660;23.262;2023-06-24T01:44:31;16.42;;;13.60;;
9461;SDS011;4769;42.660;23.262;2023-06-24T01:47:01;15.35;;;13.88;;
9461;SDS011;4769;42.660;23.262;2023-06-24T01:49:30;14.80;;;13.30;;
9461;SDS011;4769;42.660;23.262;2023-06-24T01:51:57;14.73;;;13.25;;
9461;SDS011;4769;42.660;23.262;2023-06-24T01:54:24;21.20;;;13.73;;
9461;SDS011;4769;42.660;23.262;2023-06-24T01:56:53;15.52;;;13.93;;
9461;SDS011;4769;42.660;23.262;2023-06-24T01:59:21;15.02;;;13.50;;
9461;SDS011;4769;42.660;23.262;2023-06-24T02:01:48;16.52;;;13.23;;
9461;SDS011;4769;42.660;23.262;2023-06-24T02:04:19;16.45;;;13.77;;
9461;SDS011;4769;42.660;23.262;2023-06-24T02:06:48;14.45;;;13.00;;
9461;SDS011;4769;42.660;23.262;2023-06-24T02:09:15;14.75;;;12.85;;
9461;SDS011;4769;42.660;23.262;2023-06-24T02:11:43;13.75;;;12.45;;
9461;SDS011;4769;42.660;23.262;2023-06-24T02:14:09;13.98;;;12.38;;
9461;SDS011;4769;42.660;23.262;2023-06-24T02:16:36;16.38;;;12.52;;
9461;SDS011;4769;42.660;23.262;2023-06-24T02:19:05;14.15;;;12.40;;
9461;SDS011;4769;42.660;23.262;2023-06-24T02:21:34;13.25;;;12.05;;
9461;SDS011;4769;42.660;23.262;2023-06-24T02:24:01;13.63;;;12.32;;
9461;SDS011;4769;42.660;23.262;2023-06-24T02:26:28;13.23;;;11.93;;
9461;SDS011;4769;42.660;23.262;2023-06-24T02:28:54;16.27;;;12.55;;
9461;SDS011;4769;42.660;23.262;2023-06-24T02:31:20;13.60;;;12.23;;
9461;SDS011;4769;42.660;23.262;2023-06-24T02:33:46;13.02;;;11.82;;
9461;SDS011;4769;42.660;23.262;2023-06-24T02:36:12;14.27;;;12.77;;
9461;SDS011;4769;42.660;23.262;2023-06-24T02:38:41;16.63;;;12.90;;
9461;SDS011;4769;42.660;23.262;2023-06-24T02:41:07;14.88;;;13.02;;
9461;SDS011;4769;42.660;23.262;2023-06-24T02:43:32;15.73;;;13.50;;
9461;SDS011;4769;42.660;23.262;2023-06-24T02:45:59;16.83;;;14.18;;
9461;SDS011;4769;42.660;23.262;2023-06-24T02:48:26;13.68;;;11.95;;
9461;SDS011;4769;42.660;23.262;2023-06-24T02:50:55;14.23;;;12.73;;
9461;SDS011;4769;42.660;23.262;2023-06-24T02:53:23;18.13;;;12.75;;
9461;SDS011;4769;42.660;23.262;2023-06-24T02:55:51;14.50;;;13.05;;
9461;SDS011;4769;42.660;23.262;2023-06-24T02:58:19;13.50;;;12.30;;
9461;SDS011;4769;42.660;23.262;2023-06-24T03:00:46;13.80;;;12.50;;
9461;SDS011;4769;42.660;23.262;2023-06-24T03:03:11;15.88;;;14.32;;
9461;SDS011;4769;42.660;23.262;2023-06-24T03:05:37;15.90;;;12.65;;
9461;SDS011;4769;42.660;23.262;2023-06-24T03:08:04;15.77;;;13.30;;
9461;SDS011;4769;42.660;23.262;2023-06-24T03:10:30;13.90;;;12.30;;
9461;SDS011;4769;42.660;23.262;2023-06-24T03:12:58;14.43;;;12.98;;
9461;SDS011;4769;42.660;23.262;2023-06-24T03:15:24;14.50;;;13.10;;
9461;SDS011;4769;42.660;23.262;2023-06-24T03:17:50;14.50;;;12.27;;
9461;SDS011;4769;42.660;23.262;2023-06-24T03:20:16;15.77;;;13.35;;
9461;SDS011;4769;42.660;23.262;2023-06-24T03:22:42;15.98;;;12.90;;
9461;SDS011;4769;42.660;23.262;2023-06-24T03:25:08;16.52;;;12.43;;
9461;SDS011;4769;42.660;23.262;2023-06-24T03:27:34;14.77;;;12.90;;
9461;SDS011;4769;42.660;23.262;2023-06-24T03:30:02;16.08;;;12.95;;
9461;SDS011;4769;42.660;23.262;2023-06-24T03:32:28;14.68;;;13.25;;
9461;SDS011;4769;42.660;23.262;2023-06-24T03:34:54;13.80;;;12.48;;
9461;SDS011;4769;42.660;23.262;2023-06-24T03:37:20;15.40;;;12.82;;
9461;SDS011;4769;42.660;23.262;2023-06-24T03:39:45;15.63;;;13.05;;
9461;SDS011;4769;42.660;23.262;2023-06-24T03:42:11;16.25;;;13.10;;
9461;SDS011;4769;42.660;23.262;2023-06-24T03:44:37;15.32;;;12.77;;
9461;SDS011;4769;42.660;23.262;2023-06-24T03:47:05;14.13;;;12.55;;
9461;SDS011;4769;42.660;23.262;2023-06-24T03:49:31;18.33;;;13.23;;
9461;SDS011;4769;42.660;23.262;2023-06-24T03:51:57;14.45;;;12.95;;
9461;SDS011;4769;42.660;23.262;2023-06-24T03:54:23;15.35;;;13.02;;
9461;SDS011;4769;42.660;23.262;2023-06-24T03:56:48;14.10;;;12.55;;
9461;SDS011;4769;42.660;23.262;2023-06-24T03:59:14;15.90;;;14.25;;
9461;SDS011;4769;42.660;23.262;2023-06-24T04:01:40;14.55;;;13.18;;
9461;SDS011;4769;42.660;23.262;2023-06-24T04:04:08;16.55;;;13.85;;
9461;SDS011;4769;42.660;23.262;2023-06-24T04:06:34;18.05;;;14.10;;
9461;SDS011;4769;42.660;23.262;2023-06-24T04:08:59;14.70;;;13.00;;
9461;SDS011;4769;42.660;23.262;2023-06-24T04:11:25;14.63;;;13.27;;
9461;SDS011;4769;42.660;23.262;2023-06-24T04:13:51;19.17;;;14.57;;
9461;SDS011;4769;42.660;23.262;2023-06-24T04:16:16;18.55;;;14.02;;
9461;SDS011;4769;42.660;23.262;2023-06-24T04:18:42;18.05;;;14.02;;
9461;SDS011;4769;42.660;23.262;2023-06-24T04:21:10;15.98;;;13.80;;
9461;SDS011;4769;42.660;23.262;2023-06-24T04:23:36;16.23;;;14.55;;
9461;SDS011;4769;42.660;23.262;2023-06-24T04:26:02;16.00;;;14.38;;
9461;SDS011;4769;42.660;23.262;2023-06-24T04:28:28;17.25;;;15.00;;
9461;SDS011;4769;42.660;23.262;2023-06-24T04:30:54;15.68;;;14.20;;
9461;SDS011;4769;42.660;23.262;2023-06-24T04:33:21;15.68;;;14.05;;
9461;SDS011;4769;42.660;23.262;2023-06-24T04:35:47;14.32;;;12.85;;
9461;SDS011;4769;42.660;23.262;2023-06-24T04:38:15;14.63;;;13.27;;
9461;SDS011;4769;42.660;23.262;2023-06-24T04:40:41;14.40;;;12.68;;
9461;SDS011;4769;42.660;23.262;2023-06-24T04:43:06;14.40;;;12.75;;
9461;SDS011;4769;42.660;23.262;2023-06-24T04:45:32;14.80;;;13.38;;
9461;SDS011;4769;42.660;23.262;2023-06-24T04:47:59;15.38;;;13.98;;
9461;SDS011;4769;42.660;23.262;2023-06-24T04:50:25;15.73;;;14.18;;
9461;SDS011;4769;42.660;23.262;2023-06-24T04:52:53;15.55;;;13.30;;
9461;SDS011;4769;42.660;23.262;2023-06-24T04:55:30;14.63;;;13.35;;
9461;SDS011;4769;42.660;23.262;2023-06-24T04:57:56;16.65;;;14.15;;
9461;SDS011;4769;42.660;23.262;2023-06-24T05:00:24;14.13;;;12.73;;
9461;SDS011;4769;42.660;23.262;2023-06-24T05:02:52;14.20;;;12.80;;
9461;SDS011;4769;42.660;23.262;2023-06-24T05:05:18;15.05;;;13.55;;
9461;SDS011;4769;42.660;23.262;2023-06-24T05:07:44;15.32;;;13.43;;
9461;SDS011;4769;42.660;23.262;2023-06-24T05:10:09;16.73;;;13.70;;
9461;SDS011;4769;42.660;23.262;2023-06-24T05:12:38;17.50;;;15.40;;
9461;SDS011;4769;42.660;23.262;2023-06-24T05:15:04;18.45;;;15.80;;
9461;SDS011;4769;42.660;23.262;2023-06-24T05:17:31;15.30;;;13.90;;
9461;SDS011;4769;42.660;23.262;2023-06-24T05:19:57;19.80;;;15.65;;
9461;SDS011;4769;42.660;23.262;2023-06-24T05:22:22;15.73;;;13.63;;
9461;SDS011;4769;42.660;23.262;2023-06-24T05:24:48;15.77;;;14.25;;
9461;SDS011;4769;42.660;23.262;2023-06-24T05:27:14;14.13;;;12.82;;
9461;SDS011;4769;42.660;23.262;2023-06-24T05:29:42;15.55;;;14.00;;
9461;SDS011;4769;42.660;23.262;2023-06-24T05:32:08;15.55;;;14.15;;
9461;SDS011;4769;42.660;23.262;2023-06-24T05:34:34;14.57;;;13.25;;
9461;SDS011;4769;42.660;23.262;2023-06-24T05:37:00;18.70;;;13.70;;
9461;SDS011;4769;42.660;23.262;2023-06-24T05:39:25;15.30;;;13.40;;
9461;SDS011;4769;42.660;23.262;2023-06-24T05:41:51;14.93;;;13.30;;
9461;SDS011;4769;42.660;23.262;2023-06-24T05:44:17;15.68;;;13.73;;
9461;SDS011;4769;42.660;23.262;2023-06-24T05:46:45;16.20;;;14.48;;
9461;SDS011;4769;42.660;23.262;2023-06-24T05:49:11;16.33;;;13.90;;
9461;SDS011;4769;42.660;23.262;2023-06-24T05:51:37;15.45;;;14.02;;
9461;SDS011;4769;42.660;23.262;2023-06-24T05:54:03;14.45;;;13.05;;
9461;SDS011;4769;42.660;23.262;2023-06-24T05:56:29;13.63;;;12.43;;
9461;SDS011;4769;42.660;23.262;2023-06-24T05:58:54;14.93;;;13.32;;
9461;SDS011;4769;42.660;23.262;2023-06-24T06:01:20;14.43;;;13.13;;
9461;SDS011;4769;42.660;23.262;2023-06-24T06:03:48;15.45;;;13.82;;
9461;SDS011;4769;42.660;23.262;2023-06-24T06:06:14;14.45;;;12.85;;
9461;SDS011;4769;42.660;23.262;2023-06-24T06:08:40;15.18;;;13.68;;
9461;SDS011;4769;42.660;23.262;2023-06-24T06:11:06;16.75;;;13.38;;
9461;SDS011;4769;42.660;23.262;2023-06-24T06:13:32;14.35;;;12.95;;
9461;SDS011;4769;42.660;23.262;2023-06-24T06:15:58;14.05;;;12.73;;
9461;SDS011;4769;42.660;23.262;2023-06-24T06:18:24;13.77;;;12.48;;
9461;SDS011;4769;42.660;23.262;2023-06-24T06:20:52;13.05;;;11.95;;
9461;SDS011;4769;42.660;23.262;2023-06-24T06:23:18;14.57;;;13.00;;
9461;SDS011;4769;42.660;23.262;2023-06-24T06:25:43;14.35;;;12.85;;
9461;SDS011;4769;42.660;23.262;2023-06-24T06:28:09;12.27;;;11.25;;
9461;SDS011;4769;42.660;23.262;2023-06-24T06:30:35;13.80;;;12.10;;
9461;SDS011;4769;42.660;23.262;2023-06-24T06:33:01;14.27;;;13.00;;
9461;SDS011;4769;42.660;23.262;2023-06-24T06:35:26;13.45;;;12.15;;
9461;SDS011;4769;42.660;23.262;2023-06-24T06:37:56;14.32;;;12.63;;
9461;SDS011;4769;42.660;23.262;2023-06-24T06:40:22;15.43;;;12.75;;
9461;SDS011;4769;42.660;23.262;2023-06-24T06:42:48;13.60;;;12.20;;
9461;SDS011;4769;42.660;23.262;2023-06-24T06:45:14;14.82;;;13.25;;
9461;SDS011;4769;42.660;23.262;2023-06-24T06:47:40;12.57;;;11.48;;
9461;SDS011;4769;42.660;23.262;2023-06-24T06:50:06;14.45;;;12.68;;
9461;SDS011;4769;42.660;23.262;2023-06-24T06:52:33;14.63;;;12.35;;
9461;SDS011;4769;42.660;23.262;2023-06-24T06:55:01;14.27;;;12.98;;
9461;SDS011;4769;42.660;23.262;2023-06-24T06:57:27;14.50;;;13.05;;
9461;SDS011;4769;42.660;23.262;2023-06-24T06:59:52;17.40;;;13.73;;
9461;SDS011;4769;42.660;23.262;2023-06-24T07:02:18;14.68;;;13.45;;
9461;SDS011;4769;42.660;23.262;2023-06-24T07:04:44;15.65;;;14.05;;
9461;SDS011;4769;42.660;23.262;2023-06-24T07:07:10;18.17;;;14.20;;
9461;SDS011;4769;42.660;23.262;2023-06-24T07:09:36;15.27;;;13.88;;
9461;SDS011;4769;42.660;23.262;2023-06-24T07:12:05;15.00;;;13.65;;
9461;SDS011;4769;42.660;23.262;2023-06-24T07:14:31;14.55;;;13.25;;
9461;SDS011;4769;42.660;23.262;2023-06-24T07:16:57;15.35;;;13.80;;
9461;SDS011;4769;42.660;23.262;2023-06-24T07:19:23;16.05;;;14.45;;
9461;SDS011;4769;42.660;23.262;2023-06-24T07:21:49;16.00;;;14.57;;
9461;SDS011;4769;42.660;23.262;2023-06-24T07:24:14;17.80;;;14.63;;
9461;SDS011;4769;42.660;23.262;2023-06-24T07:26:40;15.60;;;14.13;;
9461;SDS011;4769;42.660;23.262;2023-06-24T07:29:08;15.73;;;14.32;;
9461;SDS011;4769;42.660;23.262;2023-06-24T07:31:34;15.55;;;14.13;;
9461;SDS011;4769;42.660;23.262;2023-06-24T07:34:00;17.35;;;14.60;;
9461;SDS011;4769;42.660;23.262;2023-06-24T07:36:26;17.05;;;14.98;;
9461;SDS011;4769;42.660;23.262;2023-06-24T07:38:52;15.88;;;14.27;;
9461;SDS011;4769;42.660;23.262;2023-06-24T07:41:18;16.45;;;15.05;;
9461;SDS011;4769;42.660;23.262;2023-06-24T07:43:43;16.73;;;15.10;;
9461;SDS011;4769;42.660;23.262;2023-06-24T07:46:12;15.35;;;13.77;;
9461;SDS011;4769;42.660;23.262;2023-06-24T07:48:38;15.25;;;13.85;;
9461;SDS011;4769;42.660;23.262;2023-06-24T07:51:03;16.20;;;14.52;;
9461;SDS011;4769;42.660;23.262;2023-06-24T07:53:29;16.05;;;14.15;;
9461;SDS011;4769;42.660;23.262;2023-06-24T07:55:55;16.45;;;14.80;;
9461;SDS011;4769;42.660;23.262;2023-06-24T07:58:20;14.57;;;13.18;;
9461;SDS011;4769;42.660;23.262;2023-06-24T08:00:46;14.98;;;13.60;;
9461;SDS011;4769;42.660;23.262;2023-06-24T08:03:14;14.73;;;13.35;;
9461;SDS011;4769;42.660;23.262;2023-06-24T08:05:40;17.83;;;14.15;;
9461;SDS011;4769;42.660;23.262;2023-06-24T08:08:06;18.65;;;13.50;;
9461;SDS011;4769;42.660;23.262;2023-06-24T08:10:33;14.05;;;12.93;;
9461;SDS011;4769;42.660;23.262;2023-06-24T08:12:58;14.90;;;13.60;;
9461;SDS011;4769;42.660;23.262;2023-06-24T08:15:24;13.88;;;12.50;;
9461;SDS011;4769;42.660;23.262;2023-06-24T08:17:50;14.27;;;12.95;;
9461;SDS011;4769;42.660;23.262;2023-06-24T08:20:19;14.25;;;13.00;;
9461;SDS011;4769;42.660;23.262;2023-06-24T08:22:45;14.77;;;13.45;;
9461;SDS011;4769;42.660;23.262;2023-06-24T08:25:10;15.48;;;13.88;;
9461;SDS011;4769;42.660;23.262;2023-06-24T08:27:36;14.57;;;13.10;;
9461;SDS011;4769;42.660;23.262;2023-06-24T08:30:02;14.02;;;12.68;;
9461;SDS011;4769;42.660;23.262;2023-06-24T08:32:28;14.55;;;13.35;;
9461;SDS011;4769;42.660;23.262;2023-06-24T08:34:54;13.43;;;12.20;;
9461;SDS011;4769;42.660;23.262;2023-06-24T08:37:22;14.45;;;13.10;;
9461;SDS011;4769;42.660;23.262;2023-06-24T08:39:48;15.30;;;12.93;;
9461;SDS011;4769;42.660;23.262;2023-06-24T08:42:14;14.20;;;12.65;;
9461;SDS011;4769;42.660;23.262;2023-06-24T08:44:39;14.55;;;13.32;;
9461;SDS011;4769;42.660;23.262;2023-06-24T08:47:05;14.75;;;13.32;;
9461;SDS011;4769;42.660;23.262;2023-06-24T08:49:32;14.82;;;13.43;;
9461;SDS011;4769;42.660;23.262;2023-06-24T08:52:03;14.25;;;13.00;;
9461;SDS011;4769;42.660;23.262;2023-06-24T08:54:35;13.65;;;12.55;;
9461;SDS011;4769;42.660;23.262;2023-06-24T08:57:04;14.32;;;13.00;;
9461;SDS011;4769;42.660;23.262;2023-06-24T08:59:30;13.63;;;12.60;;
9461;SDS011;4769;42.660;23.262;2023-06-24T09:01:56;16.08;;;13.30;;
9461;SDS011;4769;42.660;23.262;2023-06-24T09:04:22;14.70;;;13.40;;
9461;SDS011;4769;42.660;23.262;2023-06-24T09:06:47;13.80;;;12.43;;
9461;SDS011;4769;42.660;23.262;2023-06-24T09:09:19;13.75;;;12.57;;
9461;SDS011;4769;42.660;23.262;2023-06-24T09:11:57;14.27;;;13.02;;
9461;SDS011;4769;42.660;23.262;2023-06-24T09:14:24;14.80;;;12.13;;
9461;SDS011;4769;42.660;23.262;2023-06-24T09:16:51;14.35;;;13.15;;
9461;SDS011;4769;42.660;23.262;2023-06-24T09:19:22;13.82;;;12.55;;
9461;SDS011;4769;42.660;23.262;2023-06-24T09:21:48;15.15;;;13.43;;
9461;SDS011;4769;42.660;23.262;2023-06-24T09:24:14;13.60;;;12.25;;
9461;SDS011;4769;42.660;23.262;2023-06-24T09:26:41;14.15;;;12.88;;
9461;SDS011;4769;42.660;23.262;2023-06-24T09:29:11;14.40;;;13.07;;
9461;SDS011;4769;42.660;23.262;2023-06-24T09:31:45;13.25;;;11.98;;
9461;SDS011;4769;42.660;23.262;2023-06-24T09:34:12;13.85;;;12.55;;
9461;SDS011;4769;42.660;23.262;2023-06-24T09:36:41;13.82;;;12.80;;
9461;SDS011;4769;42.660;23.262;2023-06-24T09:39:07;13.70;;;12.40;;
9461;SDS011;4769;42.660;23.262;2023-06-24T09:41:33;13.90;;;12.80;;
9461;SDS011;4769;42.660;23.262;2023-06-24T09:43:58;13.35;;;12.25;;
9461;SDS011;4769;42.660;23.262;2023-06-24T09:46:27;13.18;;;12.10;;
9461;SDS011;4769;42.660;23.262;2023-06-24T09:48:53;12.60;;;11.60;;
9461;SDS011;4769;42.660;23.262;2023-06-24T09:51:19;12.85;;;11.73;;
9461;SDS011;4769;42.660;23.262;2023-06-24T09:53:46;14.73;;;12.30;;
9461;SDS011;4769;42.660;23.262;2023-06-24T09:56:12;13.00;;;11.10;;
9461;SDS011;4769;42.660;23.262;2023-06-24T09:58:41;13.15;;;11.52;;
9461;SDS011;4769;42.660;23.262;2023-06-24T10:01:09;12.57;;;11.40;;
9461;SDS011;4769;42.660;23.262;2023-06-24T10:03:37;13.32;;;12.02;;
9461;SDS011;4769;42.660;23.262;2023-06-24T10:06:04;12.48;;;11.23;;
9461;SDS011;4769;42.660;23.262;2023-06-24T10:08:31;12.30;;;11.20;;
9461;SDS011;4769;42.660;23.262;2023-06-24T10:10:58;14.07;;;12.38;;
9461;SDS011;4769;42.660;23.262;2023-06-24T10:13:24;12.93;;;11.43;;
9461;SDS011;4769;42.660;23.262;2023-06-24T10:15:50;13.80;;;11.40;;
9461;SDS011;4769;42.660;23.262;2023-06-24T10:21:03;14.70;;;11.43;;
9461;SDS011;4769;42.660;23.262;2023-06-24T10:23:30;12.15;;;11.02;;
9461;SDS011;4769;42.660;23.262;2023-06-24T10:25:57;12.00;;;10.90;;
9461;SDS011;4769;42.660;23.262;2023-06-24T10:28:22;12.50;;;11.18;;
9461;SDS011;4769;42.660;23.262;2023-06-24T10:30:53;11.68;;;10.45;;
9461;SDS011;4769;42.660;23.262;2023-06-24T10:33:20;11.68;;;10.57;;
9461;SDS011;4769;42.660;23.262;2023-06-24T10:35:48;12.00;;;10.80;;
9461;SDS011;4769;42.660;23.262;2023-06-24T10:38:14;11.57;;;10.57;;
9461;SDS011;4769;42.660;23.262;2023-06-24T10:40:40;12.05;;;10.82;;
9461;SDS011;4769;42.660;23.262;2023-06-24T10:45:50;12.40;;;10.98;;
9461;SDS011;4769;42.660;23.262;2023-06-24T10:48:17;12.20;;;10.98;;
9461;SDS011;4769;42.660;23.262;2023-06-24T10:50:43;12.07;;;10.75;;
9461;SDS011;4769;42.660;23.262;2023-06-24T10:53:11;10.75;;;9.75;;
9461;SDS011;4769;42.660;23.262;2023-06-24T10:55:38;10.75;;;9.85;;
9461;SDS011;4769;42.660;23.262;2023-06-24T10:58:07;10.90;;;9.90;;
9461;SDS011;4769;42.660;23.262;2023-06-24T11:00:33;13.00;;;9.85;;
9461;SDS011;4769;42.660;23.262;2023-06-24T11:03:09;9.85;;;8.85;;
9461;SDS011;4769;42.660;23.262;2023-06-24T11:05:37;16.42;;;14.70;;
9461;SDS011;4769;42.660;23.262;2023-06-24T11:08:04;11.13;;;10.10;;
9461;SDS011;4769;42.660;23.262;2023-06-24T11:10:33;9.93;;;9.13;;
9461;SDS011;4769;42.660;23.262;2023-06-24T11:13:04;10.23;;;9.07;;
9461;SDS011;4769;42.660;23.262;2023-06-24T11:15:32;11.57;;;9.98;;
9461;SDS011;4769;42.660;23.262;2023-06-24T11:17:57;10.40;;;8.50;;
9461;SDS011;4769;42.660;23.262;2023-06-24T11:20:23;10.57;;;8.80;;
9461;SDS011;4769;42.660;23.262;2023-06-24T11:22:49;9.38;;;8.50;;
9461;SDS011;4769;42.660;23.262;2023-06-24T11:25:15;8.77;;;7.97;;
9461;SDS011;4769;42.660;23.262;2023-06-24T11:27:44;8.93;;;8.02;;
9461;SDS011;4769;42.660;23.262;2023-06-24T11:30:10;9.27;;;8.35;;
9461;SDS011;4769;42.660;23.262;2023-06-24T11:32:37;10.25;;;9.27;;
9461;SDS011;4769;42.660;23.262;2023-06-24T11:35:05;9.80;;;8.90;;
9461;SDS011;4769;42.660;23.262;2023-06-24T11:37:32;9.13;;;8.32;;
9461;SDS011;4769;42.660;23.262;2023-06-24T11:40:02;9.15;;;8.35;;
9461;SDS011;4769;42.660;23.262;2023-06-24T11:42:29;9.45;;;8.45;;
9461;SDS011;4769;42.660;23.262;2023-06-24T11:45:01;9.88;;;8.35;;
9461;SDS011;4769;42.660;23.262;2023-06-24T11:47:30;10.25;;;8.20;;
9461;SDS011;4769;42.660;23.262;2023-06-24T11:49:57;8.32;;;7.57;;
9461;SDS011;4769;42.660;23.262;2023-06-24T11:52:27;9.70;;;8.57;;
9461;SDS011;4769;42.660;23.262;2023-06-24T11:54:57;9.77;;;8.75;;
9461;SDS011;4769;42.660;23.262;2023-06-24T11:57:25;8.75;;;7.90;;
9461;SDS011;4769;42.660;23.262;2023-06-24T12:00:24;8.75;;;7.93;;
9461;SDS011;4769;42.660;23.262;2023-06-24T12:02:52;9.27;;;8.45;;
9461;SDS011;4769;42.660;23.262;2023-06-24T12:05:19;9.35;;;8.43;;
9461;SDS011;4769;42.660;23.262;2023-06-24T12:07:46;13.20;;;8.77;;
9461;SDS011;4769;42.660;23.262;2023-06-24T12:10:12;11.65;;;8.00;;
9461;SDS011;4769;42.660;23.262;2023-06-24T12:12:37;10.45;;;8.80;;
9461;SDS011;4769;42.660;23.262;2023-06-24T12:15:04;8.80;;;7.93;;
9461;SDS011;4769;42.660;23.262;2023-06-24T12:17:33;8.45;;;7.70;;
9461;SDS011;4769;42.660;23.262;2023-06-24T12:19:59;9.20;;;7.97;;
9461;SDS011;4769;42.660;23.262;2023-06-24T12:22:24;10.93;;;8.38;;
9461;SDS011;4769;42.660;23.262;2023-06-24T12:24:50;9.38;;;8.57;;
9461;SDS011;4769;42.660;23.262;2023-06-24T12:27:15;9.88;;;8.15;;
9461;SDS011;4769;42.660;23.262;2023-06-24T12:29:41;9.05;;;8.18;;
9461;SDS011;4769;42.660;23.262;2023-06-24T12:32:07;9.85;;;8.57;;
9461;SDS011;4769;42.660;23.262;2023-06-24T12:34:35;10.45;;;7.78;;
9461;SDS011;4769;42.660;23.262;2023-06-24T12:37:01;9.38;;;8.32;;
9461;SDS011;4769;42.660;23.262;2023-06-24T12:39:27;9.35;;;8.40;;
9461;SDS011;4769;42.660;23.262;2023-06-24T12:41:53;10.95;;;8.57;;
9461;SDS011;4769;42.660;23.262;2023-06-24T12:44:18;8.55;;;7.70;;
9461;SDS011;4769;42.660;23.262;2023-06-24T12:46:44;10.13;;;8.13;;
9461;SDS011;4769;42.660;23.262;2023-06-24T12:49:10;11.07;;;8.32;;
9461;SDS011;4769;42.660;23.262;2023-06-24T12:51:38;8.88;;;8.10;;
9461;SDS011;4769;42.660;23.262;2023-06-24T12:54:04;8.30;;;7.50;;
9461;SDS011;4769;42.660;23.262;2023-06-24T12:56:29;8.48;;;7.88;;
9461;SDS011;4769;42.660;23.262;2023-06-24T12:58:55;8.45;;;7.65;;
9461;SDS011;4769;42.660;23.262;2023-06-24T13:01:21;8.65;;;7.93;;
9461;SDS011;4769;42.660;23.262;2023-06-24T13:03:46;8.27;;;7.50;;
9461;SDS011;4769;42.660;23.262;2023-06-24T13:06:12;13.32;;;12.02;;
9461;SDS011;4769;42.660;23.262;2023-06-24T13:08:40;33.60;;;29.58;;
9461;SDS011;4769;42.660;23.262;2023-06-24T13:11:06;14.88;;;12.52;;
9461;SDS011;4769;42.660;23.262;2023-06-24T13:13:32;10.95;;;9.65;;
9461;SDS011;4769;42.660;23.262;2023-06-24T13:15:57;11.35;;;8.95;;
9461;SDS011;4769;42.660;23.262;2023-06-24T13:18:23;10.43;;;9.23;;
9461;SDS011;4769;42.660;23.262;2023-06-24T13:20:49;10.10;;;9.13;;
9461;SDS011;4769;42.660;23.262;2023-06-24T13:23:14;15.15;;;10.63;;
9461;SDS011;4769;42.660;23.262;2023-06-24T13:25:43;17.25;;;11.50;;
9461;SDS011;4769;42.660;23.262;2023-06-24T13:28:08;13.10;;;11.57;;
9461;SDS011;4769;42.660;23.262;2023-06-24T13:30:34;12.80;;;11.25;;
9461;SDS011;4769;42.660;23.262;2023-06-24T13:33:00;13.05;;;11.18;;
9461;SDS011;4769;42.660;23.262;2023-06-24T13:35:26;11.23;;;9.32;;
9461;SDS011;4769;42.660;23.262;2023-06-24T13:37:51;13.85;;;10.23;;
9461;SDS011;4769;42.660;23.262;2023-06-24T13:40:17;13.95;;;9.63;;
9461;SDS011;4769;42.660;23.262;2023-06-24T13:42:47;13.15;;;8.98;;
9461;SDS011;4769;42.660;23.262;2023-06-24T13:45:12;15.00;;;9.30;;
9461;SDS011;4769;42.660;23.262;2023-06-24T13:47:38;13.05;;;7.90;;
9461;SDS011;4769;42.660;23.262;2023-06-24T13:50:04;11.57;;;7.28;;
9461;SDS011;4769;42.660;23.262;2023-06-24T13:52:31;12.40;;;6.97;;
9461;SDS011;4769;42.660;23.262;2023-06-24T13:54:56;14.98;;;8.20;;
9461;SDS011;4769;42.660;23.262;2023-06-24T13:57:22;17.40;;;7.53;;
9461;SDS011;4769;42.660;23.262;2023-06-24T13:59:51;15.10;;;7.93;;
9461;SDS011;4769;42.660;23.262;2023-06-24T14:02:16;13.13;;;8.02;;
9461;SDS011;4769;42.660;23.262;2023-06-24T14:04:42;11.85;;;8.05;;
9461;SDS011;4769;42.660;23.262;2023-06-24T14:07:08;15.18;;;8.13;;
9461;SDS011;4769;42.660;23.262;2023-06-24T14:09:34;12.07;;;7.63;;
9461;SDS011;4769;42.660;23.262;2023-06-24T14:12:00;18.88;;;8.68;;
9461;SDS011;4769;42.660;23.262;2023-06-24T14:14:26;18.73;;;8.82;;
9461;SDS011;4769;42.660;23.262;2023-06-24T14:16:54;14.30;;;8.07;;
9461;SDS011;4769;42.660;23.262;2023-06-24T14:19:20;15.98;;;7.13;;
9461;SDS011;4769;42.660;23.262;2023-06-24T14:21:46;10.43;;;7.07;;
9461;SDS011;4769;42.660;23.262;2023-06-24T14:24:12;13.20;;;7.15;;
9461;SDS011;4769;42.660;23.262;2023-06-24T14:26:37;8.93;;;7.10;;
9461;SDS011;4769;42.660;23.262;2023-06-24T14:29:03;14.00;;;7.22;;
9461;SDS011;4769;42.660;23.262;2023-06-24T14:31:29;10.05;;;7.38;;
9461;SDS011;4769;42.660;23.262;2023-06-24T14:33:57;9.73;;;7.45;;
9461;SDS011;4769;42.660;23.262;2023-06-24T14:36:23;13.65;;;7.50;;
9461;SDS011;4769;42.660;23.262;2023-06-24T14:38:49;9.73;;;7.80;;
9461;SDS011;4769;42.660;23.262;2023-06-24T14:41:14;17.17;;;7.72;;